Aviation Digital Data Service (ADDS)

Output produced by METARs form (1420 UTC 21 August 2019)
found at http://www.aviationweather.gov/metar/data/
 
METAR text: EGGP 211350Z 23013KT 9999 VCSH SCT030 SCT042 20/14 Q1023
Conditions at: EGGP (LIVERPOOL AIRPOR, GB) observed 1350 UTC 21 August 2019
Temperature: 20.0°C (68°F)
Dewpoint: 14.0°C (57°F) [RH = 68%]
Pressure (altimeter): 30.21 inches Hg (1023.0 mb)
Winds: from the SW (230 degrees) at 15 MPH (13 knots; 6.7 m/s)
Visibility: 6 or more miles (10+ km)
Ceiling: at least 12,000 feet AGL
Clouds: scattered clouds at 3000 feet AGL
scattered clouds at 4200 feet AGL
Weather: VCSH  (showers in vicinity)

METAR text: EGGP 211320Z 20010KT 9999 -SHRA SCT030 SCT041 18/14 Q1023
Conditions at: EGGP (LIVERPOOL AIRPOR, GB) observed 1320 UTC 21 August 2019
Temperature: 18.0°C (64°F)
Dewpoint: 14.0°C (57°F) [RH = 77%]
Pressure (altimeter): 30.21 inches Hg (1023.0 mb)
Winds: from the SSW (200 degrees) at 12 MPH (10 knots; 5.1 m/s)
Visibility: 6 or more miles (10+ km)
Ceiling: at least 12,000 feet AGL
Clouds: scattered clouds at 3000 feet AGL
scattered clouds at 4100 feet AGL
Weather: -SHRA  (light rain showers)

METAR text: EGGP 211250Z 19010KT 9999 VCSH SCT031 SCT040 19/14 Q1023
Conditions at: EGGP (LIVERPOOL AIRPOR, GB) observed 1250 UTC 21 August 2019
Temperature: 19.0°C (66°F)
Dewpoint: 14.0°C (57°F) [RH = 73%]
Pressure (altimeter): 30.21 inches Hg (1023.0 mb)
Winds: from the S (190 degrees) at 12 MPH (10 knots; 5.1 m/s)
Visibility: 6 or more miles (10+ km)
Ceiling: at least 12,000 feet AGL
Clouds: scattered clouds at 3100 feet AGL
scattered clouds at 4000 feet AGL
Weather: VCSH  (showers in vicinity)

METAR text: EGGP 211220Z 21012KT 9999 SCT033 SCT040 20/14 Q1023
Conditions at: EGGP (LIVERPOOL AIRPOR, GB) observed 1220 UTC 21 August 2019
Temperature: 20.0°C (68°F)
Dewpoint: 14.0°C (57°F) [RH = 68%]
Pressure (altimeter): 30.21 inches Hg (1023.0 mb)
Winds: from the SSW (210 degrees) at 14 MPH (12 knots; 6.2 m/s)
Visibility: 6 or more miles (10+ km)
Ceiling: at least 12,000 feet AGL
Clouds: scattered clouds at 3300 feet AGL
scattered clouds at 4000 feet AGL
Weather: no significant weather observed at this time

METAR text: EGGP 211150Z 21010KT 170V230 9999 FEW034 SCT040 19/14 Q1024
Conditions at: EGGP (LIVERPOOL AIRPOR, GB) observed 1150 UTC 21 August 2019
Temperature: 19.0°C (66°F)
Dewpoint: 14.0°C (57°F) [RH = 73%]
Pressure (altimeter): 30.24 inches Hg (1024.0 mb)
Winds: from the SSW (210 degrees) at 12 MPH (10 knots; 5.1 m/s)
Visibility: 6 or more miles (10+ km)
Ceiling: at least 12,000 feet AGL
Clouds: few clouds at 3400 feet AGL
scattered clouds at 4000 feet AGL
Weather: no significant weather observed at this time

METAR text: EGGP 211120Z 21011KT 9999 SCT039 SCT044 19/14 Q1024
Conditions at: EGGP (LIVERPOOL AIRPOR, GB) observed 1120 UTC 21 August 2019
Temperature: 19.0°C (66°F)
Dewpoint: 14.0°C (57°F) [RH = 73%]
Pressure (altimeter): 30.24 inches Hg (1024.0 mb)
Winds: from the SSW (210 degrees) at 13 MPH (11 knots; 5.7 m/s)
Visibility: 6 or more miles (10+ km)
Ceiling: at least 12,000 feet AGL
Clouds: scattered clouds at 3900 feet AGL
scattered clouds at 4400 feet AGL
Weather: no significant weather observed at this time

METAR text: EGGP 211050Z 22013KT 9999 SCT032 19/12 Q1024
Conditions at: EGGP (LIVERPOOL AIRPOR, GB) observed 1050 UTC 21 August 2019
Temperature: 19.0°C (66°F)
Dewpoint: 12.0°C (54°F) [RH = 64%]
Pressure (altimeter): 30.24 inches Hg (1024.0 mb)
Winds: from the SW (220 degrees) at 15 MPH (13 knots; 6.7 m/s)
Visibility: 6 or more miles (10+ km)
Ceiling: at least 12,000 feet AGL
Clouds: scattered clouds at 3200 feet AGL
Weather: no significant weather observed at this time

METAR text: EGGP 211020Z 21010KT 9999 FEW028 19/14 Q1024
Conditions at: EGGP (LIVERPOOL AIRPOR, GB) observed 1020 UTC 21 August 2019
Temperature: 19.0°C (66°F)
Dewpoint: 14.0°C (57°F) [RH = 73%]
Pressure (altimeter): 30.24 inches Hg (1024.0 mb)
Winds: from the SSW (210 degrees) at 12 MPH (10 knots; 5.1 m/s)
Visibility: 6 or more miles (10+ km)
Ceiling: at least 12,000 feet AGL
Clouds: few clouds at 2800 feet AGL
Weather: no significant weather observed at this time

METAR text: EGGP 210950Z 21010KT 170V240 9999 FEW031 18/14 Q1024
Conditions at: EGGP (LIVERPOOL AIRPOR, GB) observed 0950 UTC 21 August 2019
Temperature: 18.0°C (64°F)
Dewpoint: 14.0°C (57°F) [RH = 77%]
Pressure (altimeter): 30.24 inches Hg (1024.0 mb)
Winds: from the SSW (210 degrees) at 12 MPH (10 knots; 5.1 m/s)
Visibility: 6 or more miles (10+ km)
Ceiling: at least 12,000 feet AGL
Clouds: few clouds at 3100 feet AGL
Weather: no significant weather observed at this time

METAR text: EGGP 210920Z 21006KT 170V230 9999 FEW032 18/15 Q1024
Conditions at: EGGP (LIVERPOOL AIRPOR, GB) observed 0920 UTC 21 August 2019
Temperature: 18.0°C (64°F)
Dewpoint: 15.0°C (59°F) [RH = 83%]
Pressure (altimeter): 30.24 inches Hg (1024.0 mb)
Winds: from the SSW (210 degrees) at 7 MPH (6 knots; 3.1 m/s)
Visibility: 6 or more miles (10+ km)
Ceiling: at least 12,000 feet AGL
Clouds: few clouds at 3200 feet AGL
Weather: no significant weather observed at this time

METAR text: EGGP 210850Z 20007KT 9999 FEW017 17/15 Q1024
Conditions at: EGGP (LIVERPOOL AIRPOR, GB) observed 0850 UTC 21 August 2019
Temperature: 17.0°C (63°F)
Dewpoint: 15.0°C (59°F) [RH = 88%]
Pressure (altimeter): 30.24 inches Hg (1024.0 mb)
Winds: from the SSW (200 degrees) at 8 MPH (7 knots; 3.6 m/s)
Visibility: 6 or more miles (10+ km)
Ceiling: at least 12,000 feet AGL
Clouds: few clouds at 1700 feet AGL
Weather: no significant weather observed at this time

METAR text: EGGP 210820Z 17008KT 9999 SCT025 17/15 Q1024
Conditions at: EGGP (LIVERPOOL AIRPOR, GB) observed 0820 UTC 21 August 2019
Temperature: 17.0°C (63°F)
Dewpoint: 15.0°C (59°F) [RH = 88%]
Pressure (altimeter): 30.24 inches Hg (1024.0 mb)
Winds: from the S (170 degrees) at 9 MPH (8 knots; 4.1 m/s)
Visibility: 6 or more miles (10+ km)
Ceiling: at least 12,000 feet AGL
Clouds: scattered clouds at 2500 feet AGL
Weather: no significant weather observed at this time

METAR text: EGGP 210750Z 16006KT CAVOK 16/15 Q1024
Conditions at: EGGP (LIVERPOOL AIRPOR, GB) observed 0750 UTC 21 August 2019
Temperature: 16.0°C (61°F)
Dewpoint: 15.0°C (59°F) [RH = 94%]
Pressure (altimeter): 30.24 inches Hg (1024.0 mb)
Winds: from the SSE (160 degrees) at 7 MPH (6 knots; 3.1 m/s)
Visibility: 6 or more miles (10+ km)
Ceiling: ceiling and visibility are OK
Clouds: unknown
Weather: no significant weather observed at this time

METAR text: EGGP 210720Z 18006KT CAVOK 15/14 Q1024
Conditions at: EGGP (LIVERPOOL AIRPOR, GB) observed 0720 UTC 21 August 2019
Temperature: 15.0°C (59°F)
Dewpoint: 14.0°C (57°F) [RH = 94%]
Pressure (altimeter): 30.24 inches Hg (1024.0 mb)
Winds: from the S (180 degrees) at 7 MPH (6 knots; 3.1 m/s)
Visibility: 6 or more miles (10+ km)
Ceiling: ceiling and visibility are OK
Clouds: unknown
Weather: no significant weather observed at this time

METAR text: EGGP 210650Z 18007KT CAVOK 15/14 Q1024
Conditions at: EGGP (LIVERPOOL AIRPOR, GB) observed 0650 UTC 21 August 2019
Temperature: 15.0°C (59°F)
Dewpoint: 14.0°C (57°F) [RH = 94%]
Pressure (altimeter): 30.24 inches Hg (1024.0 mb)
Winds: from the S (180 degrees) at 8 MPH (7 knots; 3.6 m/s)
Visibility: 6 or more miles (10+ km)
Ceiling: ceiling and visibility are OK
Clouds: unknown
Weather: no significant weather observed at this time

METAR text: EGGP 210620Z 19007KT CAVOK 15/14 Q1024
Conditions at: EGGP (LIVERPOOL AIRPOR, GB) observed 0620 UTC 21 August 2019
Temperature: 15.0°C (59°F)
Dewpoint: 14.0°C (57°F) [RH = 94%]
Pressure (altimeter): 30.24 inches Hg (1024.0 mb)
Winds: from the S (190 degrees) at 8 MPH (7 knots; 3.6 m/s)
Visibility: 6 or more miles (10+ km)
Ceiling: ceiling and visibility are OK
Clouds: unknown
Weather: no significant weather observed at this time

METAR text: EGGP 210550Z 18007KT 9999 FEW045 14/13 Q1024
Conditions at: EGGP (LIVERPOOL AIRPOR, GB) observed 0550 UTC 21 August 2019
Temperature: 14.0°C (57°F)
Dewpoint: 13.0°C (55°F) [RH = 94%]
Pressure (altimeter): 30.24 inches Hg (1024.0 mb)
Winds: from the S (180 degrees) at 8 MPH (7 knots; 3.6 m/s)
Visibility: 6 or more miles (10+ km)
Ceiling: at least 12,000 feet AGL
Clouds: few clouds at 4500 feet AGL
Weather: no significant weather observed at this time

METAR text: EGGP 210520Z 17006KT 130V200 9999 FEW036 15/13 Q1024
Conditions at: EGGP (LIVERPOOL AIRPOR, GB) observed 0520 UTC 21 August 2019
Temperature: 15.0°C (59°F)
Dewpoint: 13.0°C (55°F) [RH = 88%]
Pressure (altimeter): 30.24 inches Hg (1024.0 mb)
Winds: from the S (170 degrees) at 7 MPH (6 knots; 3.1 m/s)
Visibility: 6 or more miles (10+ km)
Ceiling: at least 12,000 feet AGL
Clouds: few clouds at 3600 feet AGL
Weather: no significant weather observed at this time

METAR text: EGGP 210450Z 18006KT 9999 SCT036 14/13 Q1024
Conditions at: EGGP (LIVERPOOL AIRPOR, GB) observed 0450 UTC 21 August 2019
Temperature: 14.0°C (57°F)
Dewpoint: 13.0°C (55°F) [RH = 94%]
Pressure (altimeter): 30.24 inches Hg (1024.0 mb)
Winds: from the S (180 degrees) at 7 MPH (6 knots; 3.1 m/s)
Visibility: 6 or more miles (10+ km)
Ceiling: at least 12,000 feet AGL
Clouds: scattered clouds at 3600 feet AGL
Weather: no significant weather observed at this time

METAR text: EGGP 210420Z 16005KT 9999 SCT025 14/13 Q1024
Conditions at: EGGP (LIVERPOOL AIRPOR, GB) observed 0420 UTC 21 August 2019
Temperature: 14.0°C (57°F)
Dewpoint: 13.0°C (55°F) [RH = 94%]
Pressure (altimeter): 30.24 inches Hg (1024.0 mb)
Winds: from the SSE (160 degrees) at 6 MPH (5 knots; 2.6 m/s)
Visibility: 6 or more miles (10+ km)
Ceiling: at least 12,000 feet AGL
Clouds: scattered clouds at 2500 feet AGL
Weather: no significant weather observed at this time

METAR text: EGGP 210350Z 16005KT 120V190 9999 SCT025 14/13 Q1024
Conditions at: EGGP (LIVERPOOL AIRPOR, GB) observed 0350 UTC 21 August 2019
Temperature: 14.0°C (57°F)
Dewpoint: 13.0°C (55°F) [RH = 94%]
Pressure (altimeter): 30.24 inches Hg (1024.0 mb)
Winds: from the SSE (160 degrees) at 6 MPH (5 knots; 2.6 m/s)
Visibility: 6 or more miles (10+ km)
Ceiling: at least 12,000 feet AGL
Clouds: scattered clouds at 2500 feet AGL
Weather: no significant weather observed at this time

METAR text: EGGP 210320Z 17005KT 9999 SCT025 15/14 Q1024
Conditions at: EGGP (LIVERPOOL AIRPOR, GB) observed 0320 UTC 21 August 2019
Temperature: 15.0°C (59°F)
Dewpoint: 14.0°C (57°F) [RH = 94%]
Pressure (altimeter): 30.24 inches Hg (1024.0 mb)
Winds: from the S (170 degrees) at 6 MPH (5 knots; 2.6 m/s)
Visibility: 6 or more miles (10+ km)
Ceiling: at least 12,000 feet AGL
Clouds: scattered clouds at 2500 feet AGL
Weather: no significant weather observed at this time

METAR text: EGGP 210250Z 18006KT 150V210 9999 SCT025 14/13 Q1024
Conditions at: EGGP (LIVERPOOL AIRPOR, GB) observed 0250 UTC 21 August 2019
Temperature: 14.0°C (57°F)
Dewpoint: 13.0°C (55°F) [RH = 94%]
Pressure (altimeter): 30.24 inches Hg (1024.0 mb)
Winds: from the S (180 degrees) at 7 MPH (6 knots; 3.1 m/s)
Visibility: 6 or more miles (10+ km)
Ceiling: at least 12,000 feet AGL
Clouds: scattered clouds at 2500 feet AGL
Weather: no significant weather observed at this time

METAR text: EGGP 210220Z 19007KT 9999 SCT025 15/14 Q1024
Conditions at: EGGP (LIVERPOOL AIRPOR, GB) observed 0220 UTC 21 August 2019
Temperature: 15.0°C (59°F)
Dewpoint: 14.0°C (57°F) [RH = 94%]
Pressure (altimeter): 30.24 inches Hg (1024.0 mb)
Winds: from the S (190 degrees) at 8 MPH (7 knots; 3.6 m/s)
Visibility: 6 or more miles (10+ km)
Ceiling: at least 12,000 feet AGL
Clouds: scattered clouds at 2500 feet AGL
Weather: no significant weather observed at this time

METAR text: EGGP 210150Z 20007KT 9999 SCT029 16/15 Q1024
Conditions at: EGGP (LIVERPOOL AIRPOR, GB) observed 0150 UTC 21 August 2019
Temperature: 16.0°C (61°F)
Dewpoint: 15.0°C (59°F) [RH = 94%]
Pressure (altimeter): 30.24 inches Hg (1024.0 mb)
Winds: from the SSW (200 degrees) at 8 MPH (7 knots; 3.6 m/s)
Visibility: 6 or more miles (10+ km)
Ceiling: at least 12,000 feet AGL
Clouds: scattered clouds at 2900 feet AGL
Weather: no significant weather observed at this time

METAR text: EGGP 210120Z 19008KT 9999 SCT029 15/14 Q1024
Conditions at: EGGP (LIVERPOOL AIRPOR, GB) observed 0120 UTC 21 August 2019
Temperature: 15.0°C (59°F)
Dewpoint: 14.0°C (57°F) [RH = 94%]
Pressure (altimeter): 30.24 inches Hg (1024.0 mb)
Winds: from the S (190 degrees) at 9 MPH (8 knots; 4.1 m/s)
Visibility: 6 or more miles (10+ km)
Ceiling: at least 12,000 feet AGL
Clouds: scattered clouds at 2900 feet AGL
Weather: no significant weather observed at this time

METAR text: EGGP 210050Z 22008KT 9999 SCT029 15/14 Q1024
Conditions at: EGGP (LIVERPOOL AIRPOR, GB) observed 0050 UTC 21 August 2019
Temperature: 15.0°C (59°F)
Dewpoint: 14.0°C (57°F) [RH = 94%]
Pressure (altimeter): 30.24 inches Hg (1024.0 mb)
Winds: from the SW (220 degrees) at 9 MPH (8 knots; 4.1 m/s)
Visibility: 6 or more miles (10+ km)
Ceiling: at least 12,000 feet AGL
Clouds: scattered clouds at 2900 feet AGL
Weather: no significant weather observed at this time

METAR text: EGGP 210020Z 19007KT 9999 SCT032 15/14 Q1023
Conditions at: EGGP (LIVERPOOL AIRPOR, GB) observed 0020 UTC 21 August 2019
Temperature: 15.0°C (59°F)
Dewpoint: 14.0°C (57°F) [RH = 94%]
Pressure (altimeter): 30.21 inches Hg (1023.0 mb)
Winds: from the S (190 degrees) at 8 MPH (7 knots; 3.6 m/s)
Visibility: 6 or more miles (10+ km)
Ceiling: at least 12,000 feet AGL
Clouds: scattered clouds at 3200 feet AGL
Weather: no significant weather observed at this time

METAR text: EGGP 202350Z 20007KT 9999 FEW028 15/14 Q1023
Conditions at: EGGP (LIVERPOOL AIRPOR, GB) observed 2350 UTC 20 August 2019
Temperature: 15.0°C (59°F)
Dewpoint: 14.0°C (57°F) [RH = 94%]
Pressure (altimeter): 30.21 inches Hg (1023.0 mb)
Winds: from the SSW (200 degrees) at 8 MPH (7 knots; 3.6 m/s)
Visibility: 6 or more miles (10+ km)
Ceiling: at least 12,000 feet AGL
Clouds: few clouds at 2800 feet AGL
Weather: no significant weather observed at this time

METAR text: EGGP 202320Z 19007KT 9999 VCSH FEW045 15/15 Q1023
Conditions at: EGGP (LIVERPOOL AIRPOR, GB) observed 2320 UTC 20 August 2019
Temperature: 15.0°C (59°F)
Dewpoint: 15.0°C (59°F) [RH = 100%]
Pressure (altimeter): 30.21 inches Hg (1023.0 mb)
Winds: from the S (190 degrees) at 8 MPH (7 knots; 3.6 m/s)
Visibility: 6 or more miles (10+ km)
Ceiling: at least 12,000 feet AGL
Clouds: few clouds at 4500 feet AGL
Weather: VCSH  (showers in vicinity)

METAR text: EGGP 202250Z 17007KT 9999 -RA SCT039 15/14 Q1023
Conditions at: EGGP (LIVERPOOL AIRPOR, GB) observed 2250 UTC 20 August 2019
Temperature: 15.0°C (59°F)
Dewpoint: 14.0°C (57°F) [RH = 94%]
Pressure (altimeter): 30.21 inches Hg (1023.0 mb)
Winds: from the S (170 degrees) at 8 MPH (7 knots; 3.6 m/s)
Visibility: 6 or more miles (10+ km)
Ceiling: at least 12,000 feet AGL
Clouds: scattered clouds at 3900 feet AGL
Weather: -RA  (light rain)

METAR text: EGGP 202220Z 17008KT 9999 -SHRA SCT035 15/14 Q1023
Conditions at: EGGP (LIVERPOOL AIRPOR, GB) observed 2220 UTC 20 August 2019
Temperature: 15.0°C (59°F)
Dewpoint: 14.0°C (57°F) [RH = 94%]
Pressure (altimeter): 30.21 inches Hg (1023.0 mb)
Winds: from the S (170 degrees) at 9 MPH (8 knots; 4.1 m/s)
Visibility: 6 or more miles (10+ km)
Ceiling: at least 12,000 feet AGL
Clouds: scattered clouds at 3500 feet AGL
Weather: -SHRA  (light rain showers)

METAR text: EGGP 202150Z 17009KT 9999 VCSH FEW019 SCT037 15/14 Q1023
Conditions at: EGGP (LIVERPOOL AIRPOR, GB) observed 2150 UTC 20 August 2019
Temperature: 15.0°C (59°F)
Dewpoint: 14.0°C (57°F) [RH = 94%]
Pressure (altimeter): 30.21 inches Hg (1023.0 mb)
Winds: from the S (170 degrees) at 10 MPH (9 knots; 4.6 m/s)
Visibility: 6 or more miles (10+ km)
Ceiling: at least 12,000 feet AGL
Clouds: few clouds at 1900 feet AGL
scattered clouds at 3700 feet AGL
Weather: VCSH  (showers in vicinity)

METAR text: EGGP 202120Z 16006KT 9999 VCSH FEW019 SCT036 15/14 Q1023
Conditions at: EGGP (LIVERPOOL AIRPOR, GB) observed 2120 UTC 20 August 2019
Temperature: 15.0°C (59°F)
Dewpoint: 14.0°C (57°F) [RH = 94%]
Pressure (altimeter): 30.21 inches Hg (1023.0 mb)
Winds: from the SSE (160 degrees) at 7 MPH (6 knots; 3.1 m/s)
Visibility: 6 or more miles (10+ km)
Ceiling: at least 12,000 feet AGL
Clouds: few clouds at 1900 feet AGL
scattered clouds at 3600 feet AGL
Weather: VCSH  (showers in vicinity)

METAR text: EGGP 202050Z 16007KT 120V190 9000 -RADZ FEW013 BKN028 15/14 Q1023
Conditions at: EGGP (LIVERPOOL AIRPOR, GB) observed 2050 UTC 20 August 2019
Temperature: 15.0°C (59°F)
Dewpoint: 14.0°C (57°F) [RH = 94%]
Pressure (altimeter): 30.21 inches Hg (1023.0 mb)
Winds: from the SSE (160 degrees) at 8 MPH (7 knots; 3.6 m/s)
Visibility: 6 miles ( 9 km)
Ceiling: 2800 feet AGL
Clouds: few clouds at 1300 feet AGL
broken clouds at 2800 feet AGL
Weather: -RA -DZ  (light rain, light drizzle)

METAR text: EGGP 202020Z 15006KT 110V170 8000 -RADZ FEW008 BKN017 14/14 Q1023 RERA REDZ
Conditions at: EGGP (LIVERPOOL AIRPOR, GB) observed 2020 UTC 20 August 2019
Temperature: 14.0°C (57°F)
Dewpoint: 14.0°C (57°F) [RH = 100%]
Pressure (altimeter): 30.21 inches Hg (1023.0 mb)
Winds: from the SSE (150 degrees) at 7 MPH (6 knots; 3.1 m/s)
Visibility: 5 miles ( 8 km)
Ceiling: 1700 feet AGL
Clouds: few clouds at 800 feet AGL
broken clouds at 1700 feet AGL
Weather: -RA -DZ  (light rain, light drizzle)

METAR text: EGGP 201950Z 13005KT 090V160 9000 4000W RADZ FEW008 SCT014 BKN020 14/13 Q1023
Conditions at: EGGP (LIVERPOOL AIRPOR, GB) observed 1950 UTC 20 August 2019
Temperature: 14.0°C (57°F)
Dewpoint: 13.0°C (55°F) [RH = 94%]
Pressure (altimeter): 30.21 inches Hg (1023.0 mb)
Winds: from the SE (130 degrees) at 6 MPH (5 knots; 2.6 m/s)
Visibility: 6 miles ( 9 km)
Ceiling: 2000 feet AGL
Clouds: few clouds at 800 feet AGL
scattered clouds at 1400 feet AGL
broken clouds at 2000 feet AGL
Weather: RA DZ  (moderate rain, moderate drizzle)

METAR text: EGGP 201920Z 15004KT 110V190 6000 -RA FEW001 SCT017 BKN022 14/13 Q1024
Conditions at: EGGP (LIVERPOOL AIRPOR, GB) observed 1920 UTC 20 August 2019
Temperature: 14.0°C (57°F)
Dewpoint: 13.0°C (55°F) [RH = 94%]
Pressure (altimeter): 30.24 inches Hg (1024.0 mb)
Winds: from the SSE (150 degrees) at 5 MPH (4 knots; 2.1 m/s)
Visibility: 4 miles ( 6 km)
Ceiling: 2200 feet AGL
Clouds: few clouds at 100 feet AGL
scattered clouds at 1700 feet AGL
broken clouds at 2200 feet AGL
Weather: -RA  (light rain)

METAR text: EGGP 201850Z 17004KT 3500 RADZ HZ FEW027 SCT033 BKN038 15/13 Q1023
Conditions at: EGGP (LIVERPOOL AIRPOR, GB) observed 1850 UTC 20 August 2019
Temperature: 15.0°C (59°F)
Dewpoint: 13.0°C (55°F) [RH = 88%]
Pressure (altimeter): 30.21 inches Hg (1023.0 mb)
Winds: from the S (170 degrees) at 5 MPH (4 knots; 2.1 m/s)
Visibility: 2.17 miles (3.49 km)
Ceiling: 3800 feet AGL
Clouds: few clouds at 2700 feet AGL
scattered clouds at 3300 feet AGL
broken clouds at 3800 feet AGL
Weather: RA DZ HZ  (moderate rain, moderate drizzle, haze)

METAR text: EGGP 201820Z 22009KT 9999 6000W -RA SCT033 BKN038 15/13 Q1023
Conditions at: EGGP (LIVERPOOL AIRPOR, GB) observed 1820 UTC 20 August 2019
Temperature: 15.0°C (59°F)
Dewpoint: 13.0°C (55°F) [RH = 88%]
Pressure (altimeter): 30.21 inches Hg (1023.0 mb)
Winds: from the SW (220 degrees) at 10 MPH (9 knots; 4.6 m/s)
Visibility: 6 or more miles (10+ km)
Ceiling: 3800 feet AGL
Clouds: scattered clouds at 3300 feet AGL
broken clouds at 3800 feet AGL
Weather: -RA  (light rain)

METAR text: EGGP 201750Z 22014KT 9999 9000W RA FEW032 BKN039 16/12 Q1023
Conditions at: EGGP (LIVERPOOL AIRPOR, GB) observed 1750 UTC 20 August 2019
Temperature: 16.0°C (61°F)
Dewpoint: 12.0°C (54°F) [RH = 77%]
Pressure (altimeter): 30.21 inches Hg (1023.0 mb)
Winds: from the SW (220 degrees) at 16 MPH (14 knots; 7.2 m/s)
Visibility: 6 or more miles (10+ km)
Ceiling: 3900 feet AGL
Clouds: few clouds at 3200 feet AGL
broken clouds at 3900 feet AGL
Weather: RA  (moderate rain)

METAR text: EGGP 201720Z 24010KT 9999 VCSH FEW033 SCT039 17/11 Q1023
Conditions at: EGGP (LIVERPOOL AIRPOR, GB) observed 1720 UTC 20 August 2019
Temperature: 17.0°C (63°F)
Dewpoint: 11.0°C (52°F) [RH = 68%]
Pressure (altimeter): 30.21 inches Hg (1023.0 mb)
Winds: from the WSW (240 degrees) at 12 MPH (10 knots; 5.1 m/s)
Visibility: 6 or more miles (10+ km)
Ceiling: at least 12,000 feet AGL
Clouds: few clouds at 3300 feet AGL
scattered clouds at 3900 feet AGL
Weather: VCSH  (showers in vicinity)

METAR text: EGGP 201650Z 27008KT 9999 FEW045 18/11 Q1023
Conditions at: EGGP (LIVERPOOL AIRPOR, GB) observed 1650 UTC 20 August 2019
Temperature: 18.0°C (64°F)
Dewpoint: 11.0°C (52°F) [RH = 64%]
Pressure (altimeter): 30.21 inches Hg (1023.0 mb)
Winds: from the W (270 degrees) at 9 MPH (8 knots; 4.1 m/s)
Visibility: 6 or more miles (10+ km)
Ceiling: at least 12,000 feet AGL
Clouds: few clouds at 4500 feet AGL
Weather: no significant weather observed at this time

METAR text: EGGP 201620Z 30005KT 250V330 9999 FEW045 18/10 Q1022
Conditions at: EGGP (LIVERPOOL AIRPOR, GB) observed 1620 UTC 20 August 2019
Temperature: 18.0°C (64°F)
Dewpoint: 10.0°C (50°F) [RH = 59%]
Pressure (altimeter): 30.18 inches Hg (1022.0 mb)
Winds: from the WNW (300 degrees) at 6 MPH (5 knots; 2.6 m/s)
Visibility: 6 or more miles (10+ km)
Ceiling: at least 12,000 feet AGL
Clouds: few clouds at 4500 feet AGL
Weather: no significant weather observed at this time

METAR text: EGGP 201550Z 29007KT 9999 FEW045 18/10 Q1022
Conditions at: EGGP (LIVERPOOL AIRPOR, GB) observed 1550 UTC 20 August 2019
Temperature: 18.0°C (64°F)
Dewpoint: 10.0°C (50°F) [RH = 59%]
Pressure (altimeter): 30.18 inches Hg (1022.0 mb)
Winds: from the WNW (290 degrees) at 8 MPH (7 knots; 3.6 m/s)
Visibility: 6 or more miles (10+ km)
Ceiling: at least 12,000 feet AGL
Clouds: few clouds at 4500 feet AGL
Weather: no significant weather observed at this time

METAR text: EGGP 201520Z 30008KT 9999 FEW040 18/09 Q1022
Conditions at: EGGP (LIVERPOOL AIRPOR, GB) observed 1520 UTC 20 August 2019
Temperature: 18.0°C (64°F)
Dewpoint: 9.0°C (48°F) [RH = 56%]
Pressure (altimeter): 30.18 inches Hg (1022.0 mb)
Winds: from the WNW (300 degrees) at 9 MPH (8 knots; 4.1 m/s)
Visibility: 6 or more miles (10+ km)
Ceiling: at least 12,000 feet AGL
Clouds: few clouds at 4000 feet AGL
Weather: no significant weather observed at this time

METAR text: EGGP 201450Z 29010KT 9999 FEW032 18/09 Q1022
Conditions at: EGGP (LIVERPOOL AIRPOR, GB) observed 1450 UTC 20 August 2019
Temperature: 18.0°C (64°F)
Dewpoint: 9.0°C (48°F) [RH = 56%]
Pressure (altimeter): 30.18 inches Hg (1022.0 mb)
Winds: from the WNW (290 degrees) at 12 MPH (10 knots; 5.1 m/s)
Visibility: 6 or more miles (10+ km)
Ceiling: at least 12,000 feet AGL
Clouds: few clouds at 3200 feet AGL
Weather: no significant weather observed at this time

METAR text: EGGP 201420Z 30009KT 270V330 9999 FEW032 18/09 Q1022
Conditions at: EGGP (LIVERPOOL AIRPOR, GB) observed 1420 UTC 20 August 2019
Temperature: 18.0°C (64°F)
Dewpoint: 9.0°C (48°F) [RH = 56%]
Pressure (altimeter): 30.18 inches Hg (1022.0 mb)
Winds: from the WNW (300 degrees) at 10 MPH (9 knots; 4.6 m/s)
Visibility: 6 or more miles (10+ km)
Ceiling: at least 12,000 feet AGL
Clouds: few clouds at 3200 feet AGL
Weather: no significant weather observed at this time

METAR text: EGGP 201350Z 29012KT 9999 FEW025 SCT032 18/09 Q1022
Conditions at: EGGP (LIVERPOOL AIRPOR, GB) observed 1350 UTC 20 August 2019
Temperature: 18.0°C (64°F)
Dewpoint: 9.0°C (48°F) [RH = 56%]
Pressure (altimeter): 30.18 inches Hg (1022.0 mb)
Winds: from the WNW (290 degrees) at 14 MPH (12 knots; 6.2 m/s)
Visibility: 6 or more miles (10+ km)
Ceiling: at least 12,000 feet AGL
Clouds: few clouds at 2500 feet AGL
scattered clouds at 3200 feet AGL
Weather: no significant weather observed at this time

METAR text: EGGP 201320Z 29012KT 9999 FEW019 SCT034 19/11 Q1022
Conditions at: EGGP (LIVERPOOL AIRPOR, GB) observed 1320 UTC 20 August 2019
Temperature: 19.0°C (66°F)
Dewpoint: 11.0°C (52°F) [RH = 60%]
Pressure (altimeter): 30.18 inches Hg (1022.0 mb)
Winds: from the WNW (290 degrees) at 14 MPH (12 knots; 6.2 m/s)
Visibility: 6 or more miles (10+ km)
Ceiling: at least 12,000 feet AGL
Clouds: few clouds at 1900 feet AGL
scattered clouds at 3400 feet AGL
Weather: no significant weather observed at this time

METAR text: EGGP 201250Z 28014KT 9999 FEW019 SCT030 18/12 Q1022
Conditions at: EGGP (LIVERPOOL AIRPOR, GB) observed 1250 UTC 20 August 2019
Temperature: 18.0°C (64°F)
Dewpoint: 12.0°C (54°F) [RH = 68%]
Pressure (altimeter): 30.18 inches Hg (1022.0 mb)
Winds: from the W (280 degrees) at 16 MPH (14 knots; 7.2 m/s)
Visibility: 6 or more miles (10+ km)
Ceiling: at least 12,000 feet AGL
Clouds: few clouds at 1900 feet AGL
scattered clouds at 3000 feet AGL
Weather: no significant weather observed at this time

METAR text: EGGP 201220Z 28014KT 9999 VCSH FEW019 SCT029 18/12 Q1022
Conditions at: EGGP (LIVERPOOL AIRPOR, GB) observed 1220 UTC 20 August 2019
Temperature: 18.0°C (64°F)
Dewpoint: 12.0°C (54°F) [RH = 68%]
Pressure (altimeter): 30.18 inches Hg (1022.0 mb)
Winds: from the W (280 degrees) at 16 MPH (14 knots; 7.2 m/s)
Visibility: 6 or more miles (10+ km)
Ceiling: at least 12,000 feet AGL
Clouds: few clouds at 1900 feet AGL
scattered clouds at 2900 feet AGL
Weather: VCSH  (showers in vicinity)

METAR text: EGGP 201150Z 28015KT 9999 -SHRA FEW019 SCT032 17/12 Q1022
Conditions at: EGGP (LIVERPOOL AIRPOR, GB) observed 1150 UTC 20 August 2019
Temperature: 17.0°C (63°F)
Dewpoint: 12.0°C (54°F) [RH = 72%]
Pressure (altimeter): 30.18 inches Hg (1022.0 mb)
Winds: from the W (280 degrees) at 17 MPH (15 knots; 7.7 m/s)
Visibility: 6 or more miles (10+ km)
Ceiling: at least 12,000 feet AGL
Clouds: few clouds at 1900 feet AGL
scattered clouds at 3200 feet AGL
Weather: -SHRA  (light rain showers)

METAR text: EGGP 201120Z 27014KT 9999 -SHRA FEW019 SCT028 17/11 Q1022
Conditions at: EGGP (LIVERPOOL AIRPOR, GB) observed 1120 UTC 20 August 2019
Temperature: 17.0°C (63°F)
Dewpoint: 11.0°C (52°F) [RH = 68%]
Pressure (altimeter): 30.18 inches Hg (1022.0 mb)
Winds: from the W (270 degrees) at 16 MPH (14 knots; 7.2 m/s)
Visibility: 6 or more miles (10+ km)
Ceiling: at least 12,000 feet AGL
Clouds: few clouds at 1900 feet AGL
scattered clouds at 2800 feet AGL
Weather: -SHRA  (light rain showers)

METAR text: EGGP 201050Z 28013KT 9999 -SHRA FEW019 SCT030 16/12 Q1022
Conditions at: EGGP (LIVERPOOL AIRPOR, GB) observed 1050 UTC 20 August 2019
Temperature: 16.0°C (61°F)
Dewpoint: 12.0°C (54°F) [RH = 77%]
Pressure (altimeter): 30.18 inches Hg (1022.0 mb)
Winds: from the W (280 degrees) at 15 MPH (13 knots; 6.7 m/s)
Visibility: 6 or more miles (10+ km)
Ceiling: at least 12,000 feet AGL
Clouds: few clouds at 1900 feet AGL
scattered clouds at 3000 feet AGL
Weather: -SHRA  (light rain showers)

METAR text: EGGP 201020Z 27013KT 9999 -SHRA FEW019 SCT035 15/12 Q1021
Conditions at: EGGP (LIVERPOOL AIRPOR, GB) observed 1020 UTC 20 August 2019
Temperature: 15.0°C (59°F)
Dewpoint: 12.0°C (54°F) [RH = 82%]
Pressure (altimeter): 30.15 inches Hg (1021.0 mb)
Winds: from the W (270 degrees) at 15 MPH (13 knots; 6.7 m/s)
Visibility: 6 or more miles (10+ km)
Ceiling: at least 12,000 feet AGL
Clouds: few clouds at 1900 feet AGL
scattered clouds at 3500 feet AGL
Weather: -SHRA  (light rain showers)

METAR text: EGGP 200950Z 26010KT 9999 -SHRA FEW019 SCT028 15/13 Q1021
Conditions at: EGGP (LIVERPOOL AIRPOR, GB) observed 0950 UTC 20 August 2019
Temperature: 15.0°C (59°F)
Dewpoint: 13.0°C (55°F) [RH = 88%]
Pressure (altimeter): 30.15 inches Hg (1021.0 mb)
Winds: from the W (260 degrees) at 12 MPH (10 knots; 5.1 m/s)
Visibility: 6 or more miles (10+ km)
Ceiling: at least 12,000 feet AGL
Clouds: few clouds at 1900 feet AGL
scattered clouds at 2800 feet AGL
Weather: -SHRA  (light rain showers)

METAR text: EGGP 200920Z 27013KT 9999 -SHRA FEW017 SCT028 14/11 Q1021
Conditions at: EGGP (LIVERPOOL AIRPOR, GB) observed 0920 UTC 20 August 2019
Temperature: 14.0°C (57°F)
Dewpoint: 11.0°C (52°F) [RH = 82%]
Pressure (altimeter): 30.15 inches Hg (1021.0 mb)
Winds: from the W (270 degrees) at 15 MPH (13 knots; 6.7 m/s)
Visibility: 6 or more miles (10+ km)
Ceiling: at least 12,000 feet AGL
Clouds: few clouds at 1700 feet AGL
scattered clouds at 2800 feet AGL
Weather: -SHRA  (light rain showers)

METAR text: EGGP 200850Z 26010KT 220V290 9999 VCSH FEW017 SCT028 14/12 Q1021
Conditions at: EGGP (LIVERPOOL AIRPOR, GB) observed 0850 UTC 20 August 2019
Temperature: 14.0°C (57°F)
Dewpoint: 12.0°C (54°F) [RH = 88%]
Pressure (altimeter): 30.15 inches Hg (1021.0 mb)
Winds: from the W (260 degrees) at 12 MPH (10 knots; 5.1 m/s)
Visibility: 6 or more miles (10+ km)
Ceiling: at least 12,000 feet AGL
Clouds: few clouds at 1700 feet AGL
scattered clouds at 2800 feet AGL
Weather: VCSH  (showers in vicinity)

METAR text: EGGP 200820Z 27013KT 9999 VCSH FEW019 SCT038 14/12 Q1020
Conditions at: EGGP (LIVERPOOL AIRPOR, GB) observed 0820 UTC 20 August 2019
Temperature: 14.0°C (57°F)
Dewpoint: 12.0°C (54°F) [RH = 88%]
Pressure (altimeter): 30.12 inches Hg (1020.0 mb)
Winds: from the W (270 degrees) at 15 MPH (13 knots; 6.7 m/s)
Visibility: 6 or more miles (10+ km)
Ceiling: at least 12,000 feet AGL
Clouds: few clouds at 1900 feet AGL
scattered clouds at 3800 feet AGL
Weather: VCSH  (showers in vicinity)

METAR text: EGGP 200750Z 26013KT 9999 -SHRA FEW018 SCT030 14/12 Q1020
Conditions at: EGGP (LIVERPOOL AIRPOR, GB) observed 0750 UTC 20 August 2019
Temperature: 14.0°C (57°F)
Dewpoint: 12.0°C (54°F) [RH = 88%]
Pressure (altimeter): 30.12 inches Hg (1020.0 mb)
Winds: from the W (260 degrees) at 15 MPH (13 knots; 6.7 m/s)
Visibility: 6 or more miles (10+ km)
Ceiling: at least 12,000 feet AGL
Clouds: few clouds at 1800 feet AGL
scattered clouds at 3000 feet AGL
Weather: -SHRA  (light rain showers)

METAR text: EGGP 200720Z 27010KT 9999 -SHRA SCT018 SCT034 14/12 Q1020
Conditions at: EGGP (LIVERPOOL AIRPOR, GB) observed 0720 UTC 20 August 2019
Temperature: 14.0°C (57°F)
Dewpoint: 12.0°C (54°F) [RH = 88%]
Pressure (altimeter): 30.12 inches Hg (1020.0 mb)
Winds: from the W (270 degrees) at 12 MPH (10 knots; 5.1 m/s)
Visibility: 6 or more miles (10+ km)
Ceiling: at least 12,000 feet AGL
Clouds: scattered clouds at 1800 feet AGL
scattered clouds at 3400 feet AGL
Weather: -SHRA  (light rain showers)

METAR text: EGGP 200650Z 26012KT 9999 -SHRA SCT018 SCT034 13/12 Q1019
Conditions at: EGGP (LIVERPOOL AIRPOR, GB) observed 0650 UTC 20 August 2019
Temperature: 13.0°C (55°F)
Dewpoint: 12.0°C (54°F) [RH = 94%]
Pressure (altimeter): 30.09 inches Hg (1019.0 mb)
Winds: from the W (260 degrees) at 14 MPH (12 knots; 6.2 m/s)
Visibility: 6 or more miles (10+ km)
Ceiling: at least 12,000 feet AGL
Clouds: scattered clouds at 1800 feet AGL
scattered clouds at 3400 feet AGL
Weather: -SHRA  (light rain showers)

METAR text: EGGP 200620Z 25012KT 8000 -SHRA SCT018 BKN034 13/12 Q1019
Conditions at: EGGP (LIVERPOOL AIRPOR, GB) observed 0620 UTC 20 August 2019
Temperature: 13.0°C (55°F)
Dewpoint: 12.0°C (54°F) [RH = 94%]
Pressure (altimeter): 30.09 inches Hg (1019.0 mb)
Winds: from the WSW (250 degrees) at 14 MPH (12 knots; 6.2 m/s)
Visibility: 5 miles ( 8 km)
Ceiling: 3400 feet AGL
Clouds: scattered clouds at 1800 feet AGL
broken clouds at 3400 feet AGL
Weather: -SHRA  (light rain showers)

METAR text: EGGP 200550Z 25014KT 8000 -SHRA SCT018 BKN035 13/12 Q1019
Conditions at: EGGP (LIVERPOOL AIRPOR, GB) observed 0550 UTC 20 August 2019
Temperature: 13.0°C (55°F)
Dewpoint: 12.0°C (54°F) [RH = 94%]
Pressure (altimeter): 30.09 inches Hg (1019.0 mb)
Winds: from the WSW (250 degrees) at 16 MPH (14 knots; 7.2 m/s)
Visibility: 5 miles ( 8 km)
Ceiling: 3500 feet AGL
Clouds: scattered clouds at 1800 feet AGL
broken clouds at 3500 feet AGL
Weather: -SHRA  (light rain showers)

METAR text: EGGP 200520Z 25015KT 8000 -SHRA SCT016 BKN036 13/12 Q1018
Conditions at: EGGP (LIVERPOOL AIRPOR, GB) observed 0520 UTC 20 August 2019
Temperature: 13.0°C (55°F)
Dewpoint: 12.0°C (54°F) [RH = 94%]
Pressure (altimeter): 30.06 inches Hg (1018.0 mb)
Winds: from the WSW (250 degrees) at 17 MPH (15 knots; 7.7 m/s)
Visibility: 5 miles ( 8 km)
Ceiling: 3600 feet AGL
Clouds: scattered clouds at 1600 feet AGL
broken clouds at 3600 feet AGL
Weather: -SHRA  (light rain showers)

METAR text: EGGP 200450Z 25014KT 9999 -SHRA SCT011 SCT045 13/12 Q1018
Conditions at: EGGP (LIVERPOOL AIRPOR, GB) observed 0450 UTC 20 August 2019
Temperature: 13.0°C (55°F)
Dewpoint: 12.0°C (54°F) [RH = 94%]
Pressure (altimeter): 30.06 inches Hg (1018.0 mb)
Winds: from the WSW (250 degrees) at 16 MPH (14 knots; 7.2 m/s)
Visibility: 6 or more miles (10+ km)
Ceiling: at least 12,000 feet AGL
Clouds: scattered clouds at 1100 feet AGL
scattered clouds at 4500 feet AGL
Weather: -SHRA  (light rain showers)

METAR text: EGGP 200420Z 25012KT 9999 VCSH SCT016 13/12 Q1017
Conditions at: EGGP (LIVERPOOL AIRPOR, GB) observed 0420 UTC 20 August 2019
Temperature: 13.0°C (55°F)
Dewpoint: 12.0°C (54°F) [RH = 94%]
Pressure (altimeter): 30.03 inches Hg (1017.0 mb)
Winds: from the WSW (250 degrees) at 14 MPH (12 knots; 6.2 m/s)
Visibility: 6 or more miles (10+ km)
Ceiling: at least 12,000 feet AGL
Clouds: scattered clouds at 1600 feet AGL
Weather: VCSH  (showers in vicinity)

METAR text: EGGP 200350Z 24010KT 9999 -SHRA SCT018 BKN036 13/12 Q1017
Conditions at: EGGP (LIVERPOOL AIRPOR, GB) observed 0350 UTC 20 August 2019
Temperature: 13.0°C (55°F)
Dewpoint: 12.0°C (54°F) [RH = 94%]
Pressure (altimeter): 30.03 inches Hg (1017.0 mb)
Winds: from the WSW (240 degrees) at 12 MPH (10 knots; 5.1 m/s)
Visibility: 6 or more miles (10+ km)
Ceiling: 3600 feet AGL
Clouds: scattered clouds at 1800 feet AGL
broken clouds at 3600 feet AGL
Weather: -SHRA  (light rain showers)

METAR text: EGGP 200320Z 27012KT 9999 -SHRA SCT014 BKN042 13/12 Q1017
Conditions at: EGGP (LIVERPOOL AIRPOR, GB) observed 0320 UTC 20 August 2019
Temperature: 13.0°C (55°F)
Dewpoint: 12.0°C (54°F) [RH = 94%]
Pressure (altimeter): 30.03 inches Hg (1017.0 mb)
Winds: from the W (270 degrees) at 14 MPH (12 knots; 6.2 m/s)
Visibility: 6 or more miles (10+ km)
Ceiling: 4200 feet AGL
Clouds: scattered clouds at 1400 feet AGL
broken clouds at 4200 feet AGL
Weather: -SHRA  (light rain showers)

METAR text: EGGP 200250Z 28008KT 9999 FEW019 14/12 Q1017
Conditions at: EGGP (LIVERPOOL AIRPOR, GB) observed 0250 UTC 20 August 2019
Temperature: 14.0°C (57°F)
Dewpoint: 12.0°C (54°F) [RH = 88%]
Pressure (altimeter): 30.03 inches Hg (1017.0 mb)
Winds: from the W (280 degrees) at 9 MPH (8 knots; 4.1 m/s)
Visibility: 6 or more miles (10+ km)
Ceiling: at least 12,000 feet AGL
Clouds: few clouds at 1900 feet AGL
Weather: no significant weather observed at this time

Forecast for: EGGP (LIVERPOOL AIRPOR, GB)
Text: TAF EGGP 211103Z 2112/2212 23012KT 9999 SCT025
Forecast period: 1200 UTC 21 August 2019 to 1200 UTC 22 August 2019
Forecast type: FROM: standard forecast or significant change
Winds: from the SW (230 degrees) at 14 MPH (12 knots; 6.2 m/s)
Visibility: 6 or more miles 10+ km)
Ceiling: at least 12,000 feet AGL
Clouds: scattered clouds at 2500 feet AGL
Weather: no significant weather forecast for this period
Text: TEMPO 2119/2212 7000 -RA
Forecast period: 1900 UTC 21 August 2019 to 1200 UTC 22 August 2019
Forecast type: TEMPORARY: The following changes expected for less than half the time period
Visibility: 4 miles (7 km)
Ceiling: unknown
Clouds: missing
Weather: -RA  (light rain)
Text: PROB30
Forecast period: 0000 to 0700 UTC 22 August 2019
Forecast type: TEMPORARY: The following changes expected for less than half the time period
Winds: from the SW (230 degrees) at 17 MPH (15 knots; 7.7 m/s)
gusting to 29 MPH (25 knots; 12.9 m/s)
Visibility: missing
Ceiling: 1000 feet AGL
Clouds: broken clouds at 1000 feet AGL
Weather: no significant weather forecast for this period
Text: TEMPO 2200/2207 23015G25KT BKN010
Forecast period: 0700 to 1200 UTC 22 August 2019
Forecast type: TEMPORARY: The following changes expected for less than half the time period
Winds: from the SW (230 degrees) at 17 MPH (15 knots; 7.7 m/s)
gusting to 29 MPH (25 knots; 12.9 m/s)
Visibility: missing
Ceiling: unknown
Clouds: missing
Weather: no significant weather forecast for this period